Airfield :
LOGIN :

Register | Disclaimer

   EN    FR    IT 

 










Legend :    VFR   Marginal VFR   IFR   Intensive IFR   Very Intensive IFR
Visi :
Ceiling :
>= 8 km
>= 3000ft
5 to 8 km
1000 to 3000 ft
1500m to 5 km
500 to 1000 ft
800 to 1500m
200 to 500 ft
< 800m
< 200 ft
Symbols :   Thunderstorms  Fog  Heavy snow  Heavy precipitations  Wind > 20 kt
SIGMETs :     Misc.  Thunderstorms  Icing  Turbulence  Mountain Waves  Volcanic Ashes






- Airport Elevation : 13 ft
- IATA code : SNR


LFRZ - St-Nazaire

CURRENT METAR :
  • 060600Z AUTO 23006KT 9000 FEW009 BKN060 BKN070 11/10 Q1016

EXPIRED METARs :
  • 060530Z AUTO 24007KT 8000 FEW007 BKN060 OVC076 12/11 Q1016
  • 060500Z AUTO 21008KT 8000 BKN010 BKN016 BKN060 12/11 Q1015
  • 060430Z AUTO 23006KT 8000 OVC012 12/12 Q1015
  • 060400Z AUTO 25008KT 9000 BKN009 BKN015 BKN054 13/12 Q1014
  • 060330Z AUTO 24009KT 8000 BKN009 BKN015 OVC043 13/12 Q1014

Expired Forecast.



MET'MAP, your aeronautical weather chart ! - Copyright ORBIFLY December 2007 - Disclaimer

ORBIFLY MET'MAP TEAM :

Programming & Development : Alexandra Zaïnal
Concept & original design : Baudouin d'Aumeries
Assistance for programming : Marc-Olivier Méhu
Technical & hardware support : Manuel Goepfert

Contact : metmap@orbifly.com




SOURCES & CREDITS :

   NOAA